Time;durP1;ratioP1;P1;durP2;ratioP2;P2;SDS_P1;SDS_P2;PMS_P1;PMS_P2;Temp;Humidity;BMP_temperature;BMP_pressure;BME280_temperature;BME280_humidity;BME280_pressure;Samples;Min_cycle;Max_cycle;Signal;HPM_P1;HPM_P2
2021/07/19 00:01:30;;;;;;;4.97;3.47;;;18.80;99.90;;;;;;5034010;28;20456;-70
2021/07/19 00:03:59;;;;;;;6.00;3.80;;;18.80;99.90;;;;;;5050582;28;20440;-70
2021/07/19 00:06:28;;;;;;;4.27;3.37;;;18.70;99.90;;;;;;5035240;28;20402;-70
2021/07/19 00:08:58;;;;;;;4.43;3.07;;;18.60;99.90;;;;;;5033562;28;20488;-69
2021/07/19 00:11:26;;;;;;;3.63;3.20;;;18.60;99.90;;;;;;5035095;28;20422;-72
2021/07/19 00:13:55;;;;;;;6.07;4.20;;;18.50;99.90;;;;;;5033958;28;20443;-71
2021/07/19 00:16:24;;;;;;;4.07;3.67;;;18.50;99.90;;;;;;5035056;28;20413;-71
2021/07/19 00:18:53;;;;;;;6.23;4.10;;;18.50;99.90;;;;;;5035402;28;20416;-71
2021/07/19 00:21:21;;;;;;;5.97;3.43;;;18.40;99.90;;;;;;5021266;28;20477;-71
2021/07/19 00:23:49;;;;;;;5.40;4.23;;;18.40;99.90;;;;;;5039717;28;20452;-71
2021/07/19 00:26:20;;;;;;;4.53;3.97;;;18.40;99.90;;;;;;5020430;28;20436;-71
2021/07/19 00:28:48;;;;;;;5.67;4.10;;;18.40;99.90;;;;;;5018396;28;20407;-71
2021/07/19 00:31:18;;;;;;;6.60;3.97;;;18.40;99.90;;;;;;5017120;28;20485;-73
2021/07/19 00:33:46;;;;;;;4.57;3.10;;;18.30;99.90;;;;;;5017517;28;20985;-70
2021/07/19 00:36:15;;;;;;;20.00;5.50;;;18.30;99.90;;;;;;5033015;28;20482;-70
2021/07/19 00:38:43;;;;;;;10.10;4.93;;;18.30;99.90;;;;;;5034434;28;20485;-70
2021/07/19 00:41:12;;;;;;;4.90;4.33;;;18.20;99.90;;;;;;5034020;28;20446;-70
2021/07/19 00:43:42;;;;;;;7.87;5.00;;;18.20;99.90;;;;;;5033164;28;20473;-70
2021/07/19 00:46:10;;;;;;;8.90;4.70;;;18.20;99.90;;;;;;5032561;28;20429;-70
2021/07/19 00:48:39;;;;;;;5.33;4.53;;;18.10;99.90;;;;;;5033273;28;20419;-71
2021/07/19 00:51:08;;;;;;;5.73;5.23;;;18.10;99.90;;;;;;5032725;28;20526;-70
2021/07/19 00:53:36;;;;;;;9.03;5.30;;;18.00;99.90;;;;;;5049571;28;20410;-70
2021/07/19 00:56:08;;;;;;;8.10;4.77;;;17.90;99.90;;;;;;5049540;28;20466;-70
2021/07/19 00:58:38;;;;;;;5.63;4.40;;;17.90;99.90;;;;;;5016878;28;20440;-68
2021/07/19 01:01:12;;;;;;;5.53;3.93;;;17.90;99.90;;;;;;5031559;28;20981;-70
2021/07/19 01:03:42;;;;;;;8.43;4.40;;;17.80;99.90;;;;;;5016560;28;20443;-70
2021/07/19 01:06:12;;;;;;;6.30;4.07;;;17.80;99.90;;;;;;5015879;28;20415;-70
2021/07/19 01:08:43;;;;;;;5.30;4.80;;;17.70;99.90;;;;;;5018910;28;20453;-69
2021/07/19 01:11:13;;;;;;;4.97;4.03;;;17.70;99.90;;;;;;5054684;28;20484;-70
2021/07/19 01:13:42;;;;;;;7.20;5.23;;;17.70;99.90;;;;;;5037965;28;20439;-72
2021/07/19 01:16:16;;;;;;;6.70;5.03;;;17.60;99.90;;;;;;5055573;28;20431;-69
2021/07/19 01:18:45;;;;;;;8.00;5.50;;;17.50;99.90;;;;;;5023608;28;20456;-69
2021/07/19 01:21:47;;;;;;;12.67;5.63;;;17.40;99.90;;;;;;5051724;28;20479;-71
2021/07/19 01:24:37;;;;;;;12.97;5.57;;;17.30;99.90;;;;;;5036079;28;20444;-72
2021/07/19 01:27:33;;;;;;;10.03;5.93;;;17.30;99.90;;;;;;5053074;28;20415;-71
2021/07/19 01:30:07;;;;;;;6.80;4.50;;;17.20;99.90;;;;;;5032602;28;20460;-71
2021/07/19 01:32:42;;;;;;;8.23;4.57;;;17.20;99.90;;;;;;5048745;28;20411;-70
2021/07/19 01:35:12;;;;;;;5.93;4.97;;;17.10;99.90;;;;;;5015670;28;20442;-70
2021/07/19 01:37:43;;;;;;;9.10;5.13;;;17.00;99.90;;;;;;5032244;28;20958;-69
2021/07/19 01:40:19;;;;;;;7.47;5.67;;;16.90;99.90;;;;;;5031896;28;20995;-72
2021/07/19 01:42:49;;;;;;;6.43;4.93;;;16.90;99.90;;;;;;5014328;28;20437;-70
2021/07/19 01:45:19;;;;;;;8.13;5.33;;;16.90;99.90;;;;;;5031265;28;20979;-69
2021/07/19 01:47:48;;;;;;;7.90;5.27;;;16.90;99.90;;;;;;5030916;28;20426;-69
2021/07/19 01:50:19;;;;;;;8.83;4.83;;;16.90;99.90;;;;;;5047788;28;20472;-69
2021/07/19 01:53:24;;;;;;;9.70;5.03;;;17.00;99.90;;;;;;4990503;28;20426;-70
2021/07/19 01:55:53;;;;;;;7.67;4.97;;;16.90;99.90;;;;;;5006647;28;20415;-69
2021/07/19 01:58:25;;;;;;;7.47;5.63;;;16.90;99.90;;;;;;5030938;28;20422;-69
2021/07/19 02:01:07;;;;;;;7.03;4.97;;;16.80;99.90;;;;;;5014648;28;20450;-71
2021/07/19 02:03:37;;;;;;;10.10;5.77;;;16.90;99.90;;;;;;5014346;28;20438;-69
2021/07/19 02:06:08;;;;;;;13.30;5.53;;;16.80;99.90;;;;;;5030981;28;20510;-71
2021/07/19 02:08:40;;;;;;;6.57;5.20;;;16.70;99.90;;;;;;5030639;28;20436;-69
2021/07/19 02:11:16;;;;;;;9.20;5.53;;;16.60;99.90;;;;;;5030321;28;20439;-71
2021/07/19 02:13:46;;;;;;;5.50;4.07;;;16.60;99.90;;;;;;5030614;28;20438;-70
2021/07/19 02:16:20;;;;;;;5.80;5.00;;;16.50;99.90;;;;;;5014114;28;20661;-70
2021/07/19 02:18:50;;;;;;;7.17;5.10;;;16.50;99.90;;;;;;5014070;28;20431;-69
2021/07/19 02:21:24;;;;;;;7.43;4.70;;;16.40;99.90;;;;;;5032340;28;20533;-70
2021/07/19 02:24:18;;;;;;;10.70;5.07;;;16.30;99.90;;;;;;5014210;28;20439;-70
2021/07/19 02:27:07;;;;;;;13.37;6.40;;;16.30;99.90;;;;;;5046970;28;20419;-69
2021/07/19 02:29:38;;;;;;;7.87;5.40;;;16.20;99.90;;;;;;5013907;28;20419;-69
2021/07/19 02:32:09;;;;;;;7.60;5.17;;;16.20;99.90;;;;;;5013931;28;20414;-69
2021/07/19 02:34:38;;;;;;;6.50;4.90;;;16.20;99.90;;;;;;5030417;28;20434;-68
2021/07/19 02:37:08;;;;;;;7.07;4.33;;;16.10;99.90;;;;;;5046904;28;20826;-71
2021/07/19 02:39:51;;;;;;;7.53;4.90;;;16.00;99.90;;;;;;5014012;28;20456;-71
2021/07/19 02:42:22;;;;;;;5.40;4.10;;;15.90;99.90;;;;;;5030048;28;20443;-69
2021/07/19 02:44:51;;;;;;;6.37;4.50;;;15.80;99.90;;;;;;5046847;28;20424;-71
2021/07/19 02:47:29;;;;;;;15.33;5.50;;;15.80;99.90;;;;;;5013718;28;20411;-70
2021/07/19 02:49:58;;;;;;;7.20;4.67;;;15.80;99.90;;;;;;5030246;28;20839;-71
2021/07/19 02:52:27;;;;;;;6.30;3.97;;;15.70;99.90;;;;;;5030325;28;20947;-69
2021/07/19 02:54:57;;;;;;;10.03;5.23;;;15.70;99.90;;;;;;5047512;28;20440;-69
2021/07/19 02:57:35;;;;;;;6.47;4.20;;;15.70;99.90;;;;;;5030178;28;20951;-70
2021/07/19 03:00:07;;;;;;;7.30;5.20;;;15.60;99.90;;;;;;5030742;28;20461;-70
2021/07/19 03:02:41;;;;;;;13.00;4.50;;;15.50;99.90;;;;;;5013971;28;20475;-70
2021/07/19 03:05:12;;;;;;;9.40;3.53;;;15.60;99.90;;;;;;5013925;28;20436;-70
2021/07/19 03:07:43;;;;;;;6.47;4.10;;;15.50;99.90;;;;;;5013097;28;20462;-70
2021/07/19 03:10:13;;;;;;;9.60;4.03;;;15.50;99.90;;;;;;5046090;28;20467;-70
2021/07/19 03:12:43;;;;;;;7.03;4.20;;;15.50;99.90;;;;;;5030276;28;20516;-70
2021/07/19 03:15:13;;;;;;;7.50;4.10;;;15.60;99.90;;;;;;5013848;28;20455;-70
2021/07/19 03:17:44;;;;;;;10.20;3.87;;;15.50;99.90;;;;;;5030156;28;20434;-70
2021/07/19 03:20:15;;;;;;;6.20;4.30;;;15.40;99.90;;;;;;5029611;28;20440;-69
2021/07/19 03:22:45;;;;;;;19.73;5.13;;;15.30;99.90;;;;;;5029096;28;20468;-70
2021/07/19 03:25:33;;;;;;;4.27;3.83;;;15.30;99.90;;;;;;5030115;28;20407;-69
2021/07/19 03:28:04;;;;;;;11.40;4.13;;;15.30;99.90;;;;;;5013157;28;20433;-69
2021/07/19 03:30:34;;;;;;;17.73;6.60;;;15.30;99.90;;;;;;5046114;28;20961;-71
2021/07/19 03:33:04;;;;;;;11.10;4.90;;;15.30;99.90;;;;;;5046279;28;20432;-70
2021/07/19 03:35:33;;;;;;;7.17;4.03;;;15.20;99.90;;;;;;5012732;28;20913;-69
2021/07/19 03:38:06;;;;;;;10.07;5.17;;;15.10;99.90;;;;;;5029468;28;20510;-70
2021/07/19 03:40:55;;;;;;;6.87;4.47;;;15.10;99.90;;;;;;5030646;28;21013;-69
2021/07/19 03:43:24;;;;;;;5.40;4.30;;;15.10;99.90;;;;;;5012488;28;20418;-70
2021/07/19 03:45:53;;;;;;;5.43;3.47;;;15.40;99.90;;;;;;5012665;28;20925;-69
2021/07/19 03:48:23;;;;;;;11.80;4.30;;;15.30;99.90;;;;;;5029361;28;20439;-69
2021/07/19 03:50:55;;;;;;;5.77;3.53;;;15.40;99.90;;;;;;5012978;28;20499;-71
2021/07/19 03:53:26;;;;;;;4.80;4.30;;;15.40;99.90;;;;;;5029490;28;20448;-70
2021/07/19 03:56:01;;;;;;;13.07;5.53;;;15.30;99.90;;;;;;5012749;28;20467;-70
2021/07/19 03:58:36;;;;;;;7.90;3.83;;;15.20;99.90;;;;;;5012791;28;20422;-70
2021/07/19 04:01:06;;;;;;;7.27;4.30;;;15.30;99.90;;;;;;5029171;28;20830;-70
2021/07/19 04:03:47;;;;;;;6.13;4.30;;;15.30;99.90;;;;;;5012821;28;20447;-71
2021/07/19 04:06:22;;;;;;;9.07;3.90;;;15.30;99.90;;;;;;5012807;28;20423;-68
2021/07/19 04:08:57;;;;;;;9.43;3.30;;;15.40;99.90;;;;;;5046438;28;20531;-72
2021/07/19 04:11:33;;;;;;;4.90;4.00;;;15.40;99.90;;;;;;5046062;28;20462;-69
2021/07/19 04:14:09;;;;;;;7.00;3.60;;;15.40;99.90;;;;;;5024327;28;20436;-69
2021/07/19 04:16:41;;;;;;;5.43;4.17;;;15.70;99.90;;;;;;5018459;28;20785;-70
2021/07/19 04:19:14;;;;;;;3.93;3.07;;;15.80;99.90;;;;;;5023723;28;20445;-70
2021/07/19 04:21:45;;;;;;;7.53;3.33;;;15.90;99.90;;;;;;5008628;28;20779;-69
2021/07/19 04:24:22;;;;;;;7.43;3.50;;;15.70;99.90;;;;;;5009229;28;20867;-71
2021/07/19 04:26:52;;;;;;;8.40;3.40;;;15.70;99.90;;;;;;5009156;28;20441;-70
2021/07/19 04:29:23;;;;;;;11.47;5.10;;;15.70;99.90;;;;;;5028835;22;21377;-80
2021/07/19 04:31:54;;;;;;;5.00;2.53;;;15.80;99.90;;;;;;5037654;28;20494;-80
2021/07/19 04:34:32;;;;;;;16.53;4.80;;;15.60;99.90;;;;;;5047192;28;20437;-79
2021/07/19 04:37:10;;;;;;;5.80;3.23;;;15.70;99.90;;;;;;5062379;28;20715;-82
2021/07/19 04:39:44;;;;;;;12.83;5.10;;;16.10;99.90;;;;;;5024025;28;20464;-82
2021/07/19 04:42:17;;;;;;;5.17;3.43;;;16.10;99.90;;;;;;5019291;28;20446;-79
2021/07/19 04:44:45;;;;;;;10.07;3.27;;;15.90;99.90;;;;;;5019312;28;20414;-81
2021/07/19 04:47:13;;;;;;;6.77;2.83;;;15.80;99.90;;;;;;5020950;28;20421;-82
2021/07/19 04:49:43;;;;;;;7.97;3.87;;;15.60;99.90;;;;;;5022129;28;20444;-81
2021/07/19 04:52:11;;;;;;;6.93;4.70;;;15.70;99.90;;;;;;5037087;28;20438;-81
2021/07/19 04:54:41;;;;;;;9.57;3.23;;;15.70;99.90;;;;;;5045497;28;20395;-80
2021/07/19 04:57:12;;;;;;;5.23;3.10;;;15.80;99.90;;;;;;5046209;28;20410;-78
2021/07/19 04:59:44;;;;;;;6.60;3.63;;;15.90;99.90;;;;;;5047662;28;20539;-79
2021/07/19 05:02:16;;;;;;;8.27;4.30;;;15.90;99.90;;;;;;5048040;28;20470;-81
2021/07/19 05:04:48;;;;;;;7.43;3.97;;;15.90;99.90;;;;;;5054570;28;20423;-79
2021/07/19 05:07:19;;;;;;;12.43;6.23;;;15.70;99.90;;;;;;5069063;28;20430;-79
2021/07/19 05:09:48;;;;;;;3.80;2.80;;;15.60;99.90;;;;;;5069515;28;20447;-79
2021/07/19 05:12:18;;;;;;;7.60;3.53;;;15.70;99.90;;;;;;5065589;28;20416;-79
2021/07/19 05:14:47;;;;;;;14.30;3.27;;;16.00;99.90;;;;;;5066807;28;20419;-81
2021/07/19 05:17:16;;;;;;;6.77;3.87;;;16.40;99.90;;;;;;5061189;28;20432;-79
2021/07/19 05:19:46;;;;;;;8.03;4.00;;;16.60;99.90;;;;;;5041999;28;21004;-81
2021/07/19 05:22:16;;;;;;;7.83;4.27;;;16.90;99.90;;;;;;5060047;28;20512;-79
2021/07/19 05:24:45;;;;;;;9.10;4.10;;;16.90;99.90;;;;;;5059848;28;20404;-81
2021/07/19 05:27:15;;;;;;;8.87;3.77;;;17.10;99.90;;;;;;5058888;28;20391;-81
2021/07/19 05:29:43;;;;;;;7.83;3.70;;;17.20;99.90;;;;;;5057546;28;20711;-82
2021/07/19 05:32:11;;;;;;;6.13;3.73;;;17.00;99.90;;;;;;5058050;28;20419;-80
2021/07/19 05:34:39;;;;;;;7.20;3.97;;;17.00;99.90;;;;;;5040672;28;20406;-82
2021/07/19 05:37:09;;;;;;;4.87;2.80;;;17.00;99.90;;;;;;5057705;28;20941;-80
2021/07/19 05:39:37;;;;;;;11.43;4.60;;;16.90;99.90;;;;;;5057934;28;20441;-81
2021/07/19 05:42:05;;;;;;;7.43;4.40;;;16.90;99.90;;;;;;5042796;28;20443;-82
2021/07/19 05:44:33;;;;;;;7.10;4.03;;;17.10;99.90;;;;;;5060538;28;20486;-83
2021/07/19 05:47:01;;;;;;;7.70;3.40;;;17.20;99.90;;;;;;5060262;28;20762;-81
2021/07/19 05:49:30;;;;;;;9.90;5.17;;;17.20;99.90;;;;;;5061371;28;20478;-82
2021/07/19 05:51:58;;;;;;;6.13;3.10;;;16.80;99.90;;;;;;5061691;28;20946;-82
2021/07/19 05:54:28;;;;;;;9.37;5.37;;;16.70;99.90;;;;;;5042013;28;20410;-80
2021/07/19 05:56:56;;;;;;;13.63;4.40;;;16.60;99.90;;;;;;5040414;28;20460;-80
2021/07/19 05:59:24;;;;;;;5.40;4.40;;;16.60;99.90;;;;;;5062726;28;20424;-80
2021/07/19 06:01:52;;;;;;;6.60;4.40;;;16.70;99.90;;;;;;5066758;28;20665;-80
2021/07/19 06:04:21;;;;;;;6.13;3.80;;;16.80;99.90;;;;;;5066542;28;20836;-80
2021/07/19 06:06:49;;;;;;;6.03;3.47;;;16.80;99.90;;;;;;5062032;28;20398;-81
2021/07/19 06:09:17;;;;;;;7.37;4.10;;;17.10;99.90;;;;;;5046117;28;20942;-80
2021/07/19 06:11:46;;;;;;;7.43;5.10;;;17.20;99.90;;;;;;5064012;28;20480;-80
2021/07/19 06:14:14;;;;;;;9.00;5.20;;;17.70;99.90;;;;;;5063449;28;20398;-79
2021/07/19 06:16:42;;;;;;;5.70;3.97;;;18.00;99.90;;;;;;5064549;28;20479;-80
2021/07/19 06:19:10;;;;;;;6.27;3.40;;;18.10;99.90;;;;;;5063800;28;20406;-80
2021/07/19 06:21:38;;;;;;;7.80;4.83;;;18.00;99.90;;;;;;5063022;28;20411;-82
2021/07/19 06:24:06;;;;;;;7.20;3.47;;;18.10;99.90;;;;;;5056818;28;20970;-80
2021/07/19 06:26:35;;;;;;;10.87;4.30;;;17.90;99.90;;;;;;5058239;28;20416;-81
2021/07/19 06:29:04;;;;;;;9.37;5.40;;;18.00;99.90;;;;;;5058315;28;20387;-81
2021/07/19 06:31:32;;;;;;;5.40;4.00;;;18.00;99.90;;;;;;5058757;28;20454;-80
2021/07/19 06:34:01;;;;;;;5.93;3.93;;;18.00;99.90;;;;;;5058961;28;20386;-79
2021/07/19 06:36:30;;;;;;;9.10;5.10;;;18.00;99.90;;;;;;5057860;28;20415;-82
2021/07/19 06:38:58;;;;;;;6.27;4.93;;;18.20;99.90;;;;;;5059291;28;20473;-83
2021/07/19 06:41:26;;;;;;;7.57;4.57;;;18.50;99.90;;;;;;5061828;28;20459;-85
2021/07/19 06:43:54;;;;;;;6.70;4.80;;;18.30;99.90;;;;;;5077608;28;20459;-86
2021/07/19 06:46:24;;;;;;;6.23;4.33;;;18.50;99.90;;;;;;5060649;28;20447;-83
2021/07/19 06:48:52;;;;;;;11.60;5.67;;;18.40;99.90;;;;;;5059872;28;20394;-81
2021/07/19 06:51:20;;;;;;;8.80;5.77;;;18.20;99.90;;;;;;5075466;28;20435;-85
2021/07/19 06:53:48;;;;;;;7.63;4.10;;;18.10;99.90;;;;;;5066762;28;20427;-84
2021/07/19 06:56:16;;;;;;;7.57;4.30;;;18.20;99.90;;;;;;5072334;28;20417;-82
2021/07/19 06:58:44;;;;;;;7.03;5.50;;;18.40;99.90;;;;;;5060453;28;20402;-83
2021/07/19 07:01:12;;;;;;;7.30;4.87;;;18.40;99.90;;;;;;5064518;28;20435;-82
2021/07/19 07:03:42;;;;;;;8.43;4.73;;;18.30;99.90;;;;;;5070251;28;20505;-80
2021/07/19 07:06:27;;;;;;;9.03;5.03;;;18.40;99.90;;;;;;5062704;28;20443;-82
2021/07/19 07:08:57;;;;;;;9.67;5.40;;;18.80;99.90;;;;;;5061596;28;20421;-82
2021/07/19 07:11:27;;;;;;;11.27;5.40;;;19.10;99.90;;;;;;5061215;28;20529;-81
2021/07/19 07:13:55;;;;;;;9.27;5.73;;;19.50;99.90;;;;;;5059637;28;20903;-82
2021/07/19 07:16:23;;;;;;;7.63;5.00;;;19.60;99.90;;;;;;5058351;28;20404;-82
2021/07/19 07:18:53;;;;;;;7.53;5.20;;;19.60;99.90;;;;;;5057014;28;20420;-81
2021/07/19 07:21:21;;;;;;;8.50;5.13;;;19.20;99.90;;;;;;5055412;28;20458;-81
2021/07/19 07:23:49;;;;;;;6.73;5.50;;;19.20;99.90;;;;;;5055749;28;20437;-80
2021/07/19 07:26:17;;;;;;;7.80;4.53;;;19.40;99.90;;;;;;5055614;28;20412;-82
2021/07/19 07:28:46;;;;;;;8.33;4.47;;;19.10;99.90;;;;;;5055929;28;20397;-81
2021/07/19 07:31:14;;;;;;;6.53;4.53;;;19.20;99.90;;;;;;5058141;28;20433;-80
2021/07/19 07:33:42;;;;;;;7.23;5.00;;;19.20;99.90;;;;;;5055571;28;20518;-82
2021/07/19 07:36:13;;;;;;;11.70;5.77;;;19.20;99.90;;;;;;5055565;28;20397;-82
2021/07/19 07:38:41;;;;;;;8.63;5.30;;;19.60;99.90;;;;;;5055876;28;20419;-83
2021/07/19 07:41:09;;;;;;;10.37;5.20;;;19.80;99.90;;;;;;5055937;28;20470;-82
2021/07/19 07:43:38;;;;;;;8.20;5.23;;;19.80;99.90;;;;;;5056305;28;20459;-83
2021/07/19 07:46:06;;;;;;;8.67;4.70;;;20.00;99.90;;;;;;5056281;28;20414;-81
2021/07/19 07:48:35;;;;;;;7.70;4.97;;;19.80;99.90;;;;;;5056495;28;20477;-80
2021/07/19 07:51:04;;;;;;;8.27;5.57;;;19.80;99.90;;;;;;5053871;28;20486;-81
2021/07/19 07:53:33;;;;;;;6.93;5.43;;;19.60;99.90;;;;;;5036901;28;20546;-82
2021/07/19 07:56:02;;;;;;;7.13;5.50;;;19.50;99.90;;;;;;5055243;28;20382;-81
2021/07/19 07:58:30;;;;;;;10.13;4.80;;;19.70;99.90;;;;;;5054378;28;20459;-81
2021/07/19 08:00:58;;;;;;;8.70;5.03;;;19.70;99.90;;;;;;5056080;28;20413;-82
2021/07/19 08:03:26;;;;;;;6.77;5.10;;;20.00;99.90;;;;;;5038641;28;20498;-83
2021/07/19 08:05:55;;;;;;;6.80;4.97;;;20.40;99.90;;;;;;5038469;28;20448;-80
2021/07/19 08:08:23;;;;;;;7.10;5.90;;;20.20;99.90;;;;;;5055163;28;20746;-82
2021/07/19 08:10:53;;;;;;;7.30;5.23;;;19.80;99.90;;;;;;5060228;28;20461;-81
2021/07/19 08:13:21;;;;;;;5.50;4.93;;;19.60;99.90;;;;;;5061115;28;20953;-81
2021/07/19 08:15:50;;;;;;;7.37;5.43;;;19.50;99.90;;;;;;5059392;28;20401;-81
2021/07/19 08:18:18;;;;;;;7.77;5.27;;;19.20;99.90;;;;;;5068900;28;20419;-80
2021/07/19 08:20:47;;;;;;;7.27;6.57;;;19.20;99.90;;;;;;5073514;28;20964;-81
2021/07/19 08:23:15;;;;;;;7.67;5.50;;;19.50;99.90;;;;;;5071592;28;20401;-80
2021/07/19 08:25:43;;;;;;;10.70;7.10;;;19.90;99.90;;;;;;5075886;28;20386;-80
2021/07/19 08:28:13;;;;;;;5.50;4.20;;;20.40;99.90;;;;;;5060118;28;20406;-82
2021/07/19 08:30:41;;;;;;;7.37;4.93;;;20.60;99.90;;;;;;5059708;28;20516;-81
2021/07/19 08:33:09;;;;;;;7.03;4.20;;;20.20;99.90;;;;;;5059315;28;20945;-81
2021/07/19 08:35:38;;;;;;;5.73;4.70;;;19.80;99.90;;;;;;5060538;28;20389;-82
2021/07/19 08:38:06;;;;;;;7.80;4.97;;;19.40;99.90;;;;;;5061429;28;20412;-80
2021/07/19 08:40:37;;;;;;;8.03;4.60;;;19.60;99.90;;;;;;5042950;28;20422;-79
2021/07/19 08:43:06;;;;;;;7.80;5.80;;;19.80;99.90;;;;;;5047409;28;20501;-80
2021/07/19 08:45:36;;;;;;;9.80;5.67;;;19.90;99.90;;;;;;5042985;28;20529;-81
2021/07/19 08:48:04;;;;;;;6.13;5.00;;;20.10;99.90;;;;;;5059670;28;20426;-81
2021/07/19 08:50:33;;;;;;;6.03;4.17;;;20.00;99.90;;;;;;5059716;28;20414;-82
2021/07/19 08:53:01;;;;;;;12.17;5.40;;;19.90;99.90;;;;;;5041808;28;20406;-82
2021/07/19 08:55:31;;;;;;;6.83;4.40;;;20.00;99.90;;;;;;5041367;28;20421;-80
2021/07/19 08:58:01;;;;;;;9.77;7.27;;;20.10;99.90;;;;;;5059266;28;20386;-83
2021/07/19 09:00:30;;;;;;;7.53;4.33;;;20.40;99.90;;;;;;5061239;28;20418;-84
2021/07/19 09:02:59;;;;;;;6.70;3.97;;;20.80;99.90;;;;;;5064077;28;20489;-80
2021/07/19 09:05:28;;;;;;;8.13;4.93;;;20.60;99.90;;;;;;5062614;28;20429;-80
2021/07/19 09:07:57;;;;;;;4.77;4.03;;;20.00;99.90;;;;;;5063361;28;20869;-78
2021/07/19 09:10:26;;;;;;;7.60;4.50;;;19.60;99.90;;;;;;5041888;28;20426;-82
2021/07/19 09:12:58;;;;;;;6.80;4.60;;;19.60;99.90;;;;;;5061824;28;20394;-80
2021/07/19 09:15:34;;;;;;;5.67;3.20;;;19.50;99.90;;;;;;5060175;28;20444;-81
2021/07/19 09:18:07;;;;;;;7.40;4.73;;;19.60;99.90;;;;;;5060209;28;20828;-83
2021/07/19 09:20:38;;;;;;;9.33;4.27;;;20.10;99.90;;;;;;5058712;28;20439;-84
2021/07/19 09:23:09;;;;;;;7.27;4.60;;;20.60;99.90;;;;;;5060957;28;20407;-82
2021/07/19 09:25:37;;;;;;;9.77;5.80;;;20.70;99.90;;;;;;5041725;28;20467;-82
2021/07/19 09:28:09;;;;;;;7.57;4.40;;;20.50;99.90;;;;;;5060547;28;20468;-81
2021/07/19 09:30:38;;;;;;;8.60;4.50;;;20.20;99.90;;;;;;5059740;28;20465;-79
2021/07/19 09:33:10;;;;;;;7.20;4.47;;;20.20;99.90;;;;;;5061108;28;20435;-81
2021/07/19 09:35:41;;;;;;;5.83;4.80;;;20.20;99.90;;;;;;5063998;28;20478;-80
2021/07/19 09:38:12;;;;;;;6.67;3.77;;;20.20;99.90;;;;;;5060984;28;20398;-81
2021/07/19 09:40:42;;;;;;;12.27;4.50;;;20.40;99.90;;;;;;5060943;28;20542;-80
2021/07/19 09:43:15;;;;;;;4.70;3.90;;;20.40;99.90;;;;;;5061185;28;20406;-83
2021/07/19 09:45:45;;;;;;;5.30;3.97;;;20.50;99.90;;;;;;5058748;28;20451;-81
2021/07/19 09:48:15;;;;;;;8.40;4.80;;;20.50;99.90;;;;;;5058612;28;20461;-80
2021/07/19 09:50:50;;;;;;;8.53;4.60;;;20.30;99.90;;;;;;5058132;28;20440;-80
2021/07/19 09:53:28;;;;;;;7.70;5.23;;;20.20;99.90;;;;;;5057525;28;20875;-80
2021/07/19 09:56:07;;;;;;;7.90;4.30;;;20.30;99.90;;;;;;5058251;28;20390;-79
2021/07/19 09:58:35;;;;;;;7.40;5.27;;;20.10;99.90;;;;;;5041750;28;20435;-82
2021/07/19 10:01:03;;;;;;;8.97;4.27;;;20.00;99.90;;;;;;5059730;28;20521;-81
2021/07/19 10:03:33;;;;;;;9.17;4.87;;;19.60;99.90;;;;;;5061011;28;20394;-81
2021/07/19 10:06:06;;;;;;;6.70;4.17;;;19.40;99.90;;;;;;5058646;28;20469;-80
2021/07/19 10:08:35;;;;;;;6.27;3.93;;;19.30;99.90;;;;;;5058849;28;20470;-84
2021/07/19 10:11:15;;;;;;;5.63;4.27;;;19.10;99.90;;;;;;5040293;28;20433;-83
2021/07/19 10:13:48;;;;;;;7.97;5.00;;;19.20;99.90;;;;;;5063064;28;20431;-81
2021/07/19 10:16:18;;;;;;;7.10;5.23;;;19.10;99.90;;;;;;5062923;28;20390;-79
2021/07/19 10:18:50;;;;;;;4.80;3.33;;;19.00;99.90;;;;;;5039732;28;20801;-80
2021/07/19 10:21:19;;;;;;;8.70;4.80;;;18.70;99.90;;;;;;5058083;28;20450;-81
2021/07/19 10:23:47;;;;;;;12.33;7.10;;;18.70;99.90;;;;;;5058361;28;20433;-83
2021/07/19 10:26:16;;;;;;;5.53;3.87;;;18.70;99.90;;;;;;5057120;28;20558;-81
2021/07/19 10:28:44;;;;;;;7.10;4.10;;;18.90;99.90;;;;;;5056472;28;20430;-80
2021/07/19 10:31:13;;;;;;;8.30;4.80;;;19.20;99.90;;;;;;5090602;22;20467;-70
2021/07/19 10:33:43;;;;;;;6.13;4.80;;;19.30;99.90;;;;;;5052617;28;20406;-70
2021/07/19 10:36:13;;;;;;;8.43;4.40;;;19.40;99.90;;;;;;5050873;28;20419;-70
2021/07/19 10:38:42;;;;;;;7.93;3.40;;;19.70;99.90;;;;;;5050926;28;20801;-70
2021/07/19 10:41:12;;;;;;;4.80;3.77;;;19.90;99.90;;;;;;5034395;28;20446;-70
2021/07/19 10:43:42;;;;;;;6.47;3.90;;;20.50;99.90;;;;;;5050530;28;20791;-71
2021/07/19 10:46:11;;;;;;;3.30;3.00;;;21.00;99.90;;;;;;5033695;28;20463;-71
2021/07/19 10:48:43;;;;;;;6.50;3.90;;;20.70;99.90;;;;;;5050219;28;20465;-70
2021/07/19 10:51:18;;;;;;;13.53;4.40;;;20.20;99.90;;;;;;5034057;28;21008;-70
2021/07/19 10:53:46;;;;;;;7.70;3.70;;;19.80;99.90;;;;;;5051656;28;20429;-71
2021/07/19 10:56:16;;;;;;;6.03;3.57;;;20.10;99.90;;;;;;5050561;28;20531;-71
2021/07/19 10:58:48;;;;;;;5.50;3.90;;;20.10;99.90;;;;;;5050525;28;20468;-72
2021/07/19 11:01:22;;;;;;;6.67;3.90;;;19.90;99.90;;;;;;5050913;28;20554;-70
2021/07/19 11:03:52;;;;;;;7.27;3.47;;;20.00;99.90;;;;;;5051486;28;20936;-69
2021/07/19 11:06:33;;;;;;;5.60;3.27;;;19.80;99.90;;;;;;5051572;28;20872;-70
2021/07/19 11:09:04;;;;;;;5.43;3.27;;;19.70;99.90;;;;;;5050235;28;20957;-70
2021/07/19 11:11:34;;;;;;;5.10;3.03;;;19.40;99.90;;;;;;5050318;28;20459;-71
2021/07/19 11:14:05;;;;;;;3.60;2.60;;;19.30;99.90;;;;;;5050703;28;20441;-69
2021/07/19 11:16:41;;;;;;;5.73;3.80;;;19.40;99.90;;;;;;5052435;28;20401;-69
2021/07/19 11:19:10;;;;;;;4.23;2.60;;;19.70;99.90;;;;;;5051617;28;20502;-69
2021/07/19 11:21:41;;;;;;;5.60;3.20;;;20.10;99.90;;;;;;5051596;28;20462;-68
2021/07/19 11:24:15;;;;;;;4.33;3.60;;;20.30;99.90;;;;;;5035132;28;20410;-70
2021/07/19 11:26:53;;;;;;;3.60;2.90;;;20.50;99.90;;;;;;5062177;28;20456;-69
2021/07/19 11:29:29;;;;;;;6.63;3.53;;;20.60;99.90;;;;;;5065799;28;20949;-69
2021/07/19 11:32:23;;;;;;;5.60;2.80;;;20.70;99.90;;;;;;5067981;28;20435;-69
2021/07/19 11:34:52;;;;;;;4.80;3.93;;;21.00;99.90;;;;;;5054498;28;20434;-70
2021/07/19 11:37:33;;;;;;;3.50;2.80;;;21.30;99.90;;;;;;5058341;28;20390;-69
2021/07/19 11:40:02;;;;;;;3.50;3.07;;;21.80;99.90;;;;;;5059944;28;20461;-69
2021/07/19 11:42:32;;;;;;;4.37;3.50;;;22.10;99.90;;;;;;5054367;28;20413;-68
2021/07/19 11:45:03;;;;;;;4.40;3.00;;;22.00;99.90;;;;;;5054553;28;20443;-69
2021/07/19 11:47:32;;;;;;;5.00;3.60;;;21.60;99.90;;;;;;5039579;28;20819;-72
2021/07/19 11:50:04;;;;;;;7.97;6.37;;;21.30;99.90;;;;;;5055700;28;20437;-70
2021/07/19 11:52:34;;;;;;;4.03;3.63;;;21.40;99.90;;;;;;5055969;28;20420;-70
2021/07/19 11:55:03;;;;;;;4.50;3.40;;;21.30;99.90;;;;;;5055058;28;20426;-70
2021/07/19 11:57:44;;;;;;;5.97;3.40;;;21.50;99.90;;;;;;5053950;28;20898;-69
2021/07/19 12:00:24;;;;;;;3.93;3.37;;;21.20;99.90;;;;;;5053526;28;20461;-69
2021/07/19 12:03:04;;;;;;;3.97;3.40;;;21.20;99.90;;;;;;5053410;28;20421;-70
2021/07/19 12:05:36;;;;;;;4.33;2.73;;;21.30;99.90;;;;;;5053123;28;20489;-69
2021/07/19 12:08:08;;;;;;;4.80;3.90;;;21.00;99.90;;;;;;5053821;28;20414;-68
2021/07/19 12:10:39;;;;;;;5.00;3.73;;;21.00;99.90;;;;;;5053113;28;20517;-69
2021/07/19 12:13:10;;;;;;;5.00;3.07;;;21.00;99.90;;;;;;5053776;28;20424;-69
2021/07/19 12:15:40;;;;;;;6.80;4.17;;;21.20;99.90;;;;;;5053433;28;20849;-69
2021/07/19 12:18:08;;;;;;;5.53;3.90;;;21.20;99.90;;;;;;5036724;28;20420;-69
2021/07/19 12:20:37;;;;;;;12.83;4.10;;;20.90;99.90;;;;;;5053220;28;20436;-69
2021/07/19 12:23:07;;;;;;;3.73;3.13;;;20.70;99.90;;;;;;5053366;28;21022;-70
2021/07/19 12:25:35;;;;;;;5.93;4.43;;;20.50;99.90;;;;;;5036515;28;20435;-69
2021/07/19 12:28:04;;;;;;;5.33;4.23;;;20.40;99.90;;;;;;5036648;28;20408;-68
2021/07/19 12:30:34;;;;;;;5.10;3.10;;;20.70;99.90;;;;;;5052590;28;20470;-69
2021/07/19 12:33:03;;;;;;;6.47;4.50;;;20.90;99.90;;;;;;5053168;28;20409;-71
2021/07/19 12:35:33;;;;;;;4.30;3.27;;;21.20;99.90;;;;;;5052748;28;20454;-70
2021/07/19 12:38:02;;;;;;;4.60;3.27;;;21.50;99.90;;;;;;5053330;28;20460;-70
2021/07/19 12:40:32;;;;;;;7.93;3.77;;;21.40;99.90;;;;;;5054218;28;20422;-68
2021/07/19 12:43:01;;;;;;;3.57;2.83;;;21.40;99.90;;;;;;5052859;28;20939;-70
2021/07/19 12:45:30;;;;;;;4.60;3.80;;;21.30;99.90;;;;;;5052790;28;20530;-70
2021/07/19 12:47:59;;;;;;;5.40;3.57;;;21.10;99.90;;;;;;5052477;28;20552;-70
2021/07/19 12:50:28;;;;;;;5.53;3.67;;;21.20;99.90;;;;;;5052598;28;20899;-71
2021/07/19 12:52:57;;;;;;;7.60;4.07;;;21.30;99.90;;;;;;5052644;28;20402;-69
2021/07/19 12:55:27;;;;;;;4.73;3.40;;;21.30;99.90;;;;;;5052528;28;20786;-70
2021/07/19 12:57:59;;;;;;;7.17;3.40;;;21.50;99.90;;;;;;5052493;28;20480;-69
2021/07/19 13:00:30;;;;;;;5.37;3.73;;;21.90;99.90;;;;;;5052472;28;20472;-68
2021/07/19 13:03:04;;;;;;;5.23;3.57;;;22.50;99.90;;;;;;5052325;28;20476;-70
2021/07/19 13:05:33;;;;;;;4.27;3.87;;;22.60;99.90;;;;;;5052442;28;20465;-70